Terminal Aerodrome Forecast
Issued by NWS Louisville, KY

Home | Current Version | Previous Version | Text Only | Print | Product List | Glossary On
Versions: 1 2 3 4 5 6 7 8 9 10 11 12 13 14 15 16 17 18 19 20 21 22 23 24
000
FTUS43 KLMK 021400 AAB
TAFLEX
TAF AMD
KLEX 021401Z 0214/0312 27010KT P6SM VCSH SCT025 OVC045
      TEMPO 0215/0216 5SM -SHRA OVC040
     FM021700 24010KT P6SM BKN035 BKN100
     FM022000 23009KT P6SM VCTS BKN035CB
     FM030000 20005KT P6SM FEW040=

USA.gov is the U.S. government's official web portal to all federal, state and local government web resources and services.